sensor_id;sensor_type;location;lat;lon;timestamp;temperature;humidity
25732;DHT22;13585;50.864;4.406;2022-07-23T00:00:09;27.40;50.70
25732;DHT22;13585;50.864;4.406;2022-07-23T00:02:35;27.40;50.70
25732;DHT22;13585;50.864;4.406;2022-07-23T00:05:01;27.30;50.60
25732;DHT22;13585;50.864;4.406;2022-07-23T00:07:27;27.30;50.60
25732;DHT22;13585;50.864;4.406;2022-07-23T00:09:52;27.30;50.60
25732;DHT22;13585;50.864;4.406;2022-07-23T00:12:18;27.30;50.60
25732;DHT22;13585;50.864;4.406;2022-07-23T00:14:44;27.30;51.20
25732;DHT22;13585;50.864;4.406;2022-07-23T00:17:09;27.30;50.50
25732;DHT22;13585;50.864;4.406;2022-07-23T00:19:35;27.30;50.50
25732;DHT22;13585;50.864;4.406;2022-07-23T00:22:01;27.30;50.50
25732;DHT22;13585;50.864;4.406;2022-07-23T00:24:26;27.30;50.50
25732;DHT22;13585;50.864;4.406;2022-07-23T00:26:52;27.30;50.50
25732;DHT22;13585;50.864;4.406;2022-07-23T00:29:17;27.30;50.50
25732;DHT22;13585;50.864;4.406;2022-07-23T00:31:43;27.30;50.50
25732;DHT22;13585;50.864;4.406;2022-07-23T00:34:09;27.20;50.40
25732;DHT22;13585;50.864;4.406;2022-07-23T00:36:35;27.20;50.40
25732;DHT22;13585;50.864;4.406;2022-07-23T00:39:00;27.20;50.40
25732;DHT22;13585;50.864;4.406;2022-07-23T00:41:26;27.20;50.40
25732;DHT22;13585;50.864;4.406;2022-07-23T00:43:51;27.20;50.40
25732;DHT22;13585;50.864;4.406;2022-07-23T00:46:21;27.20;50.50
25732;DHT22;13585;50.864;4.406;2022-07-23T00:48:48;27.20;51.10
25732;DHT22;13585;50.864;4.406;2022-07-23T00:51:17;27.10;50.30
25732;DHT22;13585;50.864;4.406;2022-07-23T00:53:43;27.20;50.40
25732;DHT22;13585;50.864;4.406;2022-07-23T00:56:10;27.10;50.40
25732;DHT22;13585;50.864;4.406;2022-07-23T00:58:36;27.20;50.40
25732;DHT22;13585;50.864;4.406;2022-07-23T01:01:04;27.20;50.40
25732;DHT22;13585;50.864;4.406;2022-07-23T01:03:30;27.10;50.30
25732;DHT22;13585;50.864;4.406;2022-07-23T01:05:56;27.10;50.30
25732;DHT22;13585;50.864;4.406;2022-07-23T01:08:23;27.10;50.30
25732;DHT22;13585;50.864;4.406;2022-07-23T01:10:49;27.20;50.40
25732;DHT22;13585;50.864;4.406;2022-07-23T01:13:16;27.10;50.30
25732;DHT22;13585;50.864;4.406;2022-07-23T01:15:42;27.10;50.30
25732;DHT22;13585;50.864;4.406;2022-07-23T01:18:08;27.10;50.30
25732;DHT22;13585;50.864;4.406;2022-07-23T01:20:34;27.10;50.30
25732;DHT22;13585;50.864;4.406;2022-07-23T01:23:00;27.10;50.30
25732;DHT22;13585;50.864;4.406;2022-07-23T01:25:26;27.10;50.30
25732;DHT22;13585;50.864;4.406;2022-07-23T01:27:52;27.10;50.30
25732;DHT22;13585;50.864;4.406;2022-07-23T01:30:18;27.10;50.40
25732;DHT22;13585;50.864;4.406;2022-07-23T01:32:44;27.10;50.40
25732;DHT22;13585;50.864;4.406;2022-07-23T01:35:10;27.10;50.30
25732;DHT22;13585;50.864;4.406;2022-07-23T01:37:36;27.10;50.40
25732;DHT22;13585;50.864;4.406;2022-07-23T01:40:02;27.10;50.30
25732;DHT22;13585;50.864;4.406;2022-07-23T01:42:28;27.10;50.30
25732;DHT22;13585;50.864;4.406;2022-07-23T01:44:53;27.10;50.40
25732;DHT22;13585;50.864;4.406;2022-07-23T01:47:19;27.00;50.30
25732;DHT22;13585;50.864;4.406;2022-07-23T01:49:45;27.00;50.30
25732;DHT22;13585;50.864;4.406;2022-07-23T01:52:10;27.00;50.30
25732;DHT22;13585;50.864;4.406;2022-07-23T01:54:38;27.00;50.30
25732;DHT22;13585;50.864;4.406;2022-07-23T01:57:04;27.00;50.40
25732;DHT22;13585;50.864;4.406;2022-07-23T01:59:30;27.00;50.40
25732;DHT22;13585;50.864;4.406;2022-07-23T02:01:56;27.00;51.00
25732;DHT22;13585;50.864;4.406;2022-07-23T02:04:23;27.00;50.40
25732;DHT22;13585;50.864;4.406;2022-07-23T02:06:50;27.00;50.40
25732;DHT22;13585;50.864;4.406;2022-07-23T02:09:18;27.00;50.40
25732;DHT22;13585;50.864;4.406;2022-07-23T02:11:44;27.00;50.40
25732;DHT22;13585;50.864;4.406;2022-07-23T02:14:09;27.00;50.40
25732;DHT22;13585;50.864;4.406;2022-07-23T02:16:35;27.00;50.40
25732;DHT22;13585;50.864;4.406;2022-07-23T02:19:01;27.00;50.30
25732;DHT22;13585;50.864;4.406;2022-07-23T02:21:26;27.00;50.30
25732;DHT22;13585;50.864;4.406;2022-07-23T02:23:52;27.00;50.30
25732;DHT22;13585;50.864;4.406;2022-07-23T02:26:17;27.00;50.30
25732;DHT22;13585;50.864;4.406;2022-07-23T02:28:43;27.00;50.30
25732;DHT22;13585;50.864;4.406;2022-07-23T02:31:09;27.00;51.00
25732;DHT22;13585;50.864;4.406;2022-07-23T02:33:34;26.90;50.30
25732;DHT22;13585;50.864;4.406;2022-07-23T02:36:00;27.00;50.30
25732;DHT22;13585;50.864;4.406;2022-07-23T02:38:26;26.90;50.30
25732;DHT22;13585;50.864;4.406;2022-07-23T02:40:52;26.90;50.30
25732;DHT22;13585;50.864;4.406;2022-07-23T02:43:17;26.90;50.30
25732;DHT22;13585;50.864;4.406;2022-07-23T02:45:43;26.90;50.30
25732;DHT22;13585;50.864;4.406;2022-07-23T02:48:08;26.90;50.30
25732;DHT22;13585;50.864;4.406;2022-07-23T02:50:34;26.90;50.30
25732;DHT22;13585;50.864;4.406;2022-07-23T02:53:00;26.90;50.30
25732;DHT22;13585;50.864;4.406;2022-07-23T02:55:25;26.90;50.30
25732;DHT22;13585;50.864;4.406;2022-07-23T02:57:51;26.90;50.30
25732;DHT22;13585;50.864;4.406;2022-07-23T03:00:17;26.90;50.30
25732;DHT22;13585;50.864;4.406;2022-07-23T03:02:43;26.90;50.30
25732;DHT22;13585;50.864;4.406;2022-07-23T03:05:09;26.90;50.30
25732;DHT22;13585;50.864;4.406;2022-07-23T03:07:34;26.90;50.30
25732;DHT22;13585;50.864;4.406;2022-07-23T03:10:00;26.90;50.30
25732;DHT22;13585;50.864;4.406;2022-07-23T03:12:26;26.90;50.30
25732;DHT22;13585;50.864;4.406;2022-07-23T03:14:51;26.80;50.30
25732;DHT22;13585;50.864;4.406;2022-07-23T03:17:17;26.80;50.30
25732;DHT22;13585;50.864;4.406;2022-07-23T03:19:43;26.80;50.30
25732;DHT22;13585;50.864;4.406;2022-07-23T03:22:08;26.80;50.30
25732;DHT22;13585;50.864;4.406;2022-07-23T03:24:34;26.90;50.30
25732;DHT22;13585;50.864;4.406;2022-07-23T03:27:18;26.80;50.20
25732;DHT22;13585;50.864;4.406;2022-07-23T03:29:44;26.80;50.20
25732;DHT22;13585;50.864;4.406;2022-07-23T03:32:09;26.80;50.20
25732;DHT22;13585;50.864;4.406;2022-07-23T03:34:35;26.80;50.20
25732;DHT22;13585;50.864;4.406;2022-07-23T03:37:01;26.80;50.30
25732;DHT22;13585;50.864;4.406;2022-07-23T03:39:26;26.80;50.30
25732;DHT22;13585;50.864;4.406;2022-07-23T03:41:52;26.80;50.30
25732;DHT22;13585;50.864;4.406;2022-07-23T03:44:18;26.80;50.30
25732;DHT22;13585;50.864;4.406;2022-07-23T03:46:43;26.80;50.30
25732;DHT22;13585;50.864;4.406;2022-07-23T03:49:09;26.80;50.30
25732;DHT22;13585;50.864;4.406;2022-07-23T03:51:34;26.80;50.30
25732;DHT22;13585;50.864;4.406;2022-07-23T03:54:00;26.80;50.30
25732;DHT22;13585;50.864;4.406;2022-07-23T03:56:26;26.80;50.30
25732;DHT22;13585;50.864;4.406;2022-07-23T03:58:51;26.80;50.30
25732;DHT22;13585;50.864;4.406;2022-07-23T04:01:17;26.80;50.30
25732;DHT22;13585;50.864;4.406;2022-07-23T04:03:43;26.80;50.30
25732;DHT22;13585;50.864;4.406;2022-07-23T04:06:08;26.80;50.30
25732;DHT22;13585;50.864;4.406;2022-07-23T04:08:34;26.80;51.00
25732;DHT22;13585;50.864;4.406;2022-07-23T04:10:59;26.80;50.30
25732;DHT22;13585;50.864;4.406;2022-07-23T04:13:25;26.80;50.30
25732;DHT22;13585;50.864;4.406;2022-07-23T04:15:51;26.80;50.30
25732;DHT22;13585;50.864;4.406;2022-07-23T04:18:17;26.70;50.30
25732;DHT22;13585;50.864;4.406;2022-07-23T04:20:44;26.70;50.30
25732;DHT22;13585;50.864;4.406;2022-07-23T04:23:10;26.70;50.30
25732;DHT22;13585;50.864;4.406;2022-07-23T04:25:35;26.70;50.30
25732;DHT22;13585;50.864;4.406;2022-07-23T04:28:01;26.70;50.30
25732;DHT22;13585;50.864;4.406;2022-07-23T04:30:27;26.80;50.40
25732;DHT22;13585;50.864;4.406;2022-07-23T04:32:52;26.70;50.30
25732;DHT22;13585;50.864;4.406;2022-07-23T04:35:18;26.70;50.30
25732;DHT22;13585;50.864;4.406;2022-07-23T04:37:44;26.80;50.40
25732;DHT22;13585;50.864;4.406;2022-07-23T04:40:10;26.70;50.30
25732;DHT22;13585;50.864;4.406;2022-07-23T04:42:36;26.70;50.30
25732;DHT22;13585;50.864;4.406;2022-07-23T04:45:02;26.70;50.30
25732;DHT22;13585;50.864;4.406;2022-07-23T04:47:29;26.70;50.40
25732;DHT22;13585;50.864;4.406;2022-07-23T04:49:56;26.70;50.40
25732;DHT22;13585;50.864;4.406;2022-07-23T04:52:22;26.70;50.40
25732;DHT22;13585;50.864;4.406;2022-07-23T04:54:47;26.70;50.40
25732;DHT22;13585;50.864;4.406;2022-07-23T04:57:13;26.70;50.40
25732;DHT22;13585;50.864;4.406;2022-07-23T04:59:39;26.70;50.40
25732;DHT22;13585;50.864;4.406;2022-07-23T05:02:04;26.70;50.50
25732;DHT22;13585;50.864;4.406;2022-07-23T05:04:30;26.70;50.50
25732;DHT22;13585;50.864;4.406;2022-07-23T05:06:57;26.70;50.50
25732;DHT22;13585;50.864;4.406;2022-07-23T05:09:23;26.70;50.50
25732;DHT22;13585;50.864;4.406;2022-07-23T05:11:48;26.70;50.50
25732;DHT22;13585;50.864;4.406;2022-07-23T05:14:14;26.70;50.50
25732;DHT22;13585;50.864;4.406;2022-07-23T05:16:39;26.70;50.50
25732;DHT22;13585;50.864;4.406;2022-07-23T05:19:05;26.70;50.50
25732;DHT22;13585;50.864;4.406;2022-07-23T05:21:31;26.70;50.50
25732;DHT22;13585;50.864;4.406;2022-07-23T05:23:57;26.70;50.50
25732;DHT22;13585;50.864;4.406;2022-07-23T05:26:22;26.70;50.60
25732;DHT22;13585;50.864;4.406;2022-07-23T05:28:48;26.70;50.60
25732;DHT22;13585;50.864;4.406;2022-07-23T05:31:14;26.80;50.60
25732;DHT22;13585;50.864;4.406;2022-07-23T05:33:39;26.70;50.60
25732;DHT22;13585;50.864;4.406;2022-07-23T05:36:05;26.80;50.60
25732;DHT22;13585;50.864;4.406;2022-07-23T05:38:31;26.80;50.60
25732;DHT22;13585;50.864;4.406;2022-07-23T05:40:57;26.80;50.60
25732;DHT22;13585;50.864;4.406;2022-07-23T05:43:23;26.80;50.60
25732;DHT22;13585;50.864;4.406;2022-07-23T05:45:49;26.80;50.70
25732;DHT22;13585;50.864;4.406;2022-07-23T05:48:15;26.80;50.70
25732;DHT22;13585;50.864;4.406;2022-07-23T05:50:40;26.80;50.70
25732;DHT22;13585;50.864;4.406;2022-07-23T05:53:06;26.80;50.70
25732;DHT22;13585;50.864;4.406;2022-07-23T05:55:31;26.80;50.70
25732;DHT22;13585;50.864;4.406;2022-07-23T05:57:58;26.80;51.30
25732;DHT22;13585;50.864;4.406;2022-07-23T06:00:24;26.80;50.70
25732;DHT22;13585;50.864;4.406;2022-07-23T06:02:50;26.80;50.80
25732;DHT22;13585;50.864;4.406;2022-07-23T06:05:16;26.80;50.80
25732;DHT22;13585;50.864;4.406;2022-07-23T06:07:42;26.80;50.80
25732;DHT22;13585;50.864;4.406;2022-07-23T06:10:08;26.80;50.80
25732;DHT22;13585;50.864;4.406;2022-07-23T06:12:34;26.80;50.80
25732;DHT22;13585;50.864;4.406;2022-07-23T06:14:59;26.80;50.90
25732;DHT22;13585;50.864;4.406;2022-07-23T06:17:25;26.80;50.80
25732;DHT22;13585;50.864;4.406;2022-07-23T06:19:52;26.80;50.80
25732;DHT22;13585;50.864;4.406;2022-07-23T06:22:18;26.80;50.80
25732;DHT22;13585;50.864;4.406;2022-07-23T06:24:43;26.90;50.90
25732;DHT22;13585;50.864;4.406;2022-07-23T06:27:09;26.90;50.90
25732;DHT22;13585;50.864;4.406;2022-07-23T06:29:35;26.90;50.90
25732;DHT22;13585;50.864;4.406;2022-07-23T06:32:00;26.90;50.90
25732;DHT22;13585;50.864;4.406;2022-07-23T06:34:26;26.90;50.90
25732;DHT22;13585;50.864;4.406;2022-07-23T06:36:52;27.00;50.90
25732;DHT22;13585;50.864;4.406;2022-07-23T06:39:17;27.00;50.80
25732;DHT22;13585;50.864;4.406;2022-07-23T06:41:43;27.00;50.80
25732;DHT22;13585;50.864;4.406;2022-07-23T06:44:08;27.00;50.80
25732;DHT22;13585;50.864;4.406;2022-07-23T06:46:34;27.10;50.80
25732;DHT22;13585;50.864;4.406;2022-07-23T06:49:00;27.10;50.80
25732;DHT22;13585;50.864;4.406;2022-07-23T06:51:25;27.10;50.70
25732;DHT22;13585;50.864;4.406;2022-07-23T06:53:51;27.10;50.70
25732;DHT22;13585;50.864;4.406;2022-07-23T06:56:17;27.10;50.70
25732;DHT22;13585;50.864;4.406;2022-07-23T06:58:42;27.20;50.70
25732;DHT22;13585;50.864;4.406;2022-07-23T07:01:11;27.20;50.70
25732;DHT22;13585;50.864;4.406;2022-07-23T07:03:37;27.20;50.70
25732;DHT22;13585;50.864;4.406;2022-07-23T07:06:02;27.20;50.70
25732;DHT22;13585;50.864;4.406;2022-07-23T07:08:28;27.20;50.60
25732;DHT22;13585;50.864;4.406;2022-07-23T07:10:54;27.20;50.60
25732;DHT22;13585;50.864;4.406;2022-07-23T07:13:19;27.20;50.50
25732;DHT22;13585;50.864;4.406;2022-07-23T07:15:45;27.20;50.60
25732;DHT22;13585;50.864;4.406;2022-07-23T07:18:10;27.30;50.50
25732;DHT22;13585;50.864;4.406;2022-07-23T07:20:36;27.30;50.40
25732;DHT22;13585;50.864;4.406;2022-07-23T07:23:02;27.30;50.40
25732;DHT22;13585;50.864;4.406;2022-07-23T07:25:27;27.30;50.30
25732;DHT22;13585;50.864;4.406;2022-07-23T07:27:53;27.40;50.40
25732;DHT22;13585;50.864;4.406;2022-07-23T07:30:19;27.30;50.30
25732;DHT22;13585;50.864;4.406;2022-07-23T07:32:44;27.30;50.30
25732;DHT22;13585;50.864;4.406;2022-07-23T07:35:10;27.30;50.20
25732;DHT22;13585;50.864;4.406;2022-07-23T07:37:36;27.30;50.20
25732;DHT22;13585;50.864;4.406;2022-07-23T07:40:02;27.40;50.20
25732;DHT22;13585;50.864;4.406;2022-07-23T07:42:28;27.40;50.20
25732;DHT22;13585;50.864;4.406;2022-07-23T07:44:54;27.40;50.20
25732;DHT22;13585;50.864;4.406;2022-07-23T07:47:19;27.50;50.80
25732;DHT22;13585;50.864;4.406;2022-07-23T07:49:45;27.40;50.10
25732;DHT22;13585;50.864;4.406;2022-07-23T07:52:11;27.40;50.10
25732;DHT22;13585;50.864;4.406;2022-07-23T07:54:36;27.40;50.10
25732;DHT22;13585;50.864;4.406;2022-07-23T07:57:03;27.40;50.10
25732;DHT22;13585;50.864;4.406;2022-07-23T07:59:28;27.50;50.10
25732;DHT22;13585;50.864;4.406;2022-07-23T08:01:54;27.40;50.00
25732;DHT22;13585;50.864;4.406;2022-07-23T08:04:20;27.40;50.00
25732;DHT22;13585;50.864;4.406;2022-07-23T08:06:46;27.50;50.10
25732;DHT22;13585;50.864;4.406;2022-07-23T08:09:11;27.50;50.00
25732;DHT22;13585;50.864;4.406;2022-07-23T08:11:37;27.50;50.00
25732;DHT22;13585;50.864;4.406;2022-07-23T08:14:03;27.50;50.00
25732;DHT22;13585;50.864;4.406;2022-07-23T08:16:28;27.50;50.00
25732;DHT22;13585;50.864;4.406;2022-07-23T08:18:54;27.50;50.00
25732;DHT22;13585;50.864;4.406;2022-07-23T08:21:20;27.50;50.00
25732;DHT22;13585;50.864;4.406;2022-07-23T08:23:46;27.50;49.90
25732;DHT22;13585;50.864;4.406;2022-07-23T08:26:12;27.50;49.90
25732;DHT22;13585;50.864;4.406;2022-07-23T08:28:37;27.50;49.90
25732;DHT22;13585;50.864;4.406;2022-07-23T08:31:03;27.50;49.90
25732;DHT22;13585;50.864;4.406;2022-07-23T08:33:30;27.60;49.90
25732;DHT22;13585;50.864;4.406;2022-07-23T08:35:56;27.60;49.90
25732;DHT22;13585;50.864;4.406;2022-07-23T08:38:22;27.50;49.90
25732;DHT22;13585;50.864;4.406;2022-07-23T08:40:50;27.60;50.50
25732;DHT22;13585;50.864;4.406;2022-07-23T08:43:20;27.60;49.90
25732;DHT22;13585;50.864;4.406;2022-07-23T08:45:48;27.60;49.90
25732;DHT22;13585;50.864;4.406;2022-07-23T08:48:18;27.70;49.80
25732;DHT22;13585;50.864;4.406;2022-07-23T08:50:46;27.70;49.60
25732;DHT22;13585;50.864;4.406;2022-07-23T08:53:12;27.60;49.60
25732;DHT22;13585;50.864;4.406;2022-07-23T08:55:39;27.60;49.70
25732;DHT22;13585;50.864;4.406;2022-07-23T08:58:05;27.60;49.70
25732;DHT22;13585;50.864;4.406;2022-07-23T09:00:32;27.60;49.70
25732;DHT22;13585;50.864;4.406;2022-07-23T09:02:58;27.60;49.70
25732;DHT22;13585;50.864;4.406;2022-07-23T09:05:24;27.60;49.70
25732;DHT22;13585;50.864;4.406;2022-07-23T09:10:57;27.60;49.80
25732;DHT22;13585;50.864;4.406;2022-07-23T09:15:58;27.60;49.50
25732;DHT22;13585;50.864;4.406;2022-07-23T09:18:43;27.60;49.50
25732;DHT22;13585;50.864;4.406;2022-07-23T09:21:23;27.60;49.50
25732;DHT22;13585;50.864;4.406;2022-07-23T09:24:04;27.60;49.40
25732;DHT22;13585;50.864;4.406;2022-07-23T09:29:20;27.60;49.30
25732;DHT22;13585;50.864;4.406;2022-07-23T09:32:01;27.60;49.30
25732;DHT22;13585;50.864;4.406;2022-07-23T09:34:32;27.60;49.30
25732;DHT22;13585;50.864;4.406;2022-07-23T09:37:18;27.60;49.90
25732;DHT22;13585;50.864;4.406;2022-07-23T09:39:46;27.60;49.30
25732;DHT22;13585;50.864;4.406;2022-07-23T09:42:20;27.60;49.10
25732;DHT22;13585;50.864;4.406;2022-07-23T09:44:56;27.60;49.10
25732;DHT22;13585;50.864;4.406;2022-07-23T09:47:25;27.60;49.00
25732;DHT22;13585;50.864;4.406;2022-07-23T09:50:08;27.60;48.90
25732;DHT22;13585;50.864;4.406;2022-07-23T09:52:44;27.60;48.90
25732;DHT22;13585;50.864;4.406;2022-07-23T09:55:10;27.60;48.80
25732;DHT22;13585;50.864;4.406;2022-07-23T09:57:35;27.60;48.70
25732;DHT22;13585;50.864;4.406;2022-07-23T10:00:04;27.60;48.60
25732;DHT22;13585;50.864;4.406;2022-07-23T10:02:32;27.60;48.60
25732;DHT22;13585;50.864;4.406;2022-07-23T10:04:59;27.60;48.50
25732;DHT22;13585;50.864;4.406;2022-07-23T10:07:26;27.60;48.50
25732;DHT22;13585;50.864;4.406;2022-07-23T10:09:55;27.70;48.50
25732;DHT22;13585;50.864;4.406;2022-07-23T10:12:21;27.70;48.50
25732;DHT22;13585;50.864;4.406;2022-07-23T10:15:05;27.70;48.40
25732;DHT22;13585;50.864;4.406;2022-07-23T10:17:33;27.60;48.30
25732;DHT22;13585;50.864;4.406;2022-07-23T10:19:58;27.70;48.40
25732;DHT22;13585;50.864;4.406;2022-07-23T10:22:31;27.60;48.30
25732;DHT22;13585;50.864;4.406;2022-07-23T10:25:27;27.60;48.40
25732;DHT22;13585;50.864;4.406;2022-07-23T10:39:12;27.70;48.40
25732;DHT22;13585;50.864;4.406;2022-07-23T10:41:40;27.70;48.40
25732;DHT22;13585;50.864;4.406;2022-07-23T10:46:35;27.70;48.40
25732;DHT22;13585;50.864;4.406;2022-07-23T10:49:30;27.70;48.40
25732;DHT22;13585;50.864;4.406;2022-07-23T10:54:40;27.70;48.40
25732;DHT22;13585;50.864;4.406;2022-07-23T10:57:07;27.70;48.20
25732;DHT22;13585;50.864;4.406;2022-07-23T11:02:29;27.70;48.40
25732;DHT22;13585;50.864;4.406;2022-07-23T11:05:07;27.70;48.20
25732;DHT22;13585;50.864;4.406;2022-07-23T11:07:34;27.70;48.30
25732;DHT22;13585;50.864;4.406;2022-07-23T11:10:00;27.70;48.20
25732;DHT22;13585;50.864;4.406;2022-07-23T11:15:10;27.70;48.30
25732;DHT22;13585;50.864;4.406;2022-07-23T11:17:58;27.70;48.40
25732;DHT22;13585;50.864;4.406;2022-07-23T11:20:24;27.70;48.30
25732;DHT22;13585;50.864;4.406;2022-07-23T11:22:57;27.70;48.40
25732;DHT22;13585;50.864;4.406;2022-07-23T11:27:54;27.70;48.50
25732;DHT22;13585;50.864;4.406;2022-07-23T11:32:52;27.70;48.50
25732;DHT22;13585;50.864;4.406;2022-07-23T11:35:26;27.80;48.40
25732;DHT22;13585;50.864;4.406;2022-07-23T11:37:54;27.80;48.30
25732;DHT22;13585;50.864;4.406;2022-07-23T11:40:28;27.80;48.50
25732;DHT22;13585;50.864;4.406;2022-07-23T11:43:05;27.80;48.50
25732;DHT22;13585;50.864;4.406;2022-07-23T11:45:37;27.70;48.50
25732;DHT22;13585;50.864;4.406;2022-07-23T11:48:06;27.80;48.50
25732;DHT22;13585;50.864;4.406;2022-07-23T11:50:32;27.70;48.40
25732;DHT22;13585;50.864;4.406;2022-07-23T11:52:58;27.80;48.50
25732;DHT22;13585;50.864;4.406;2022-07-23T11:55:24;27.80;48.60
25732;DHT22;13585;50.864;4.406;2022-07-23T11:57:52;27.80;48.50
25732;DHT22;13585;50.864;4.406;2022-07-23T12:00:24;27.80;48.60
25732;DHT22;13585;50.864;4.406;2022-07-23T12:02:52;27.80;48.60
25732;DHT22;13585;50.864;4.406;2022-07-23T12:05:21;27.80;48.60
25732;DHT22;13585;50.864;4.406;2022-07-23T12:07:49;27.80;48.50
25732;DHT22;13585;50.864;4.406;2022-07-23T12:10:23;27.80;48.50
25732;DHT22;13585;50.864;4.406;2022-07-23T12:12:56;27.80;48.60
25732;DHT22;13585;50.864;4.406;2022-07-23T12:15:31;27.80;48.60
25732;DHT22;13585;50.864;4.406;2022-07-23T12:17:59;27.80;48.60
25732;DHT22;13585;50.864;4.406;2022-07-23T12:20:28;27.80;48.50
25732;DHT22;13585;50.864;4.406;2022-07-23T12:22:59;27.80;48.50
25732;DHT22;13585;50.864;4.406;2022-07-23T12:25:28;27.80;49.10
25732;DHT22;13585;50.864;4.406;2022-07-23T12:28:08;27.90;48.50
25732;DHT22;13585;50.864;4.406;2022-07-23T12:30:39;27.80;48.50
25732;DHT22;13585;50.864;4.406;2022-07-23T12:33:06;27.90;48.50
25732;DHT22;13585;50.864;4.406;2022-07-23T12:35:51;27.90;48.50
25732;DHT22;13585;50.864;4.406;2022-07-23T12:38:19;27.80;48.50
25732;DHT22;13585;50.864;4.406;2022-07-23T12:43:27;27.90;48.50
25732;DHT22;13585;50.864;4.406;2022-07-23T12:48:28;27.90;48.50
25732;DHT22;13585;50.864;4.406;2022-07-23T12:53:32;27.80;48.40
25732;DHT22;13585;50.864;4.406;2022-07-23T12:56:04;27.90;48.40
25732;DHT22;13585;50.864;4.406;2022-07-23T12:58:56;27.90;48.50
25732;DHT22;13585;50.864;4.406;2022-07-23T13:01:28;27.80;48.40
25732;DHT22;13585;50.864;4.406;2022-07-23T13:04:09;27.90;48.40
25732;DHT22;13585;50.864;4.406;2022-07-23T13:06:42;27.80;48.40
25732;DHT22;13585;50.864;4.406;2022-07-23T13:09:10;27.90;48.40
25732;DHT22;13585;50.864;4.406;2022-07-23T13:11:38;27.90;48.40
25732;DHT22;13585;50.864;4.406;2022-07-23T13:14:04;27.90;48.40
25732;DHT22;13585;50.864;4.406;2022-07-23T13:16:31;27.90;48.40
25732;DHT22;13585;50.864;4.406;2022-07-23T13:18:58;27.90;48.50
25732;DHT22;13585;50.864;4.406;2022-07-23T13:21:25;27.90;49.10
25732;DHT22;13585;50.864;4.406;2022-07-23T13:23:51;27.90;48.50
25732;DHT22;13585;50.864;4.406;2022-07-23T13:26:16;27.90;48.50
25732;DHT22;13585;50.864;4.406;2022-07-23T13:28:42;27.90;48.50
25732;DHT22;13585;50.864;4.406;2022-07-23T13:31:08;27.90;48.50
25732;DHT22;13585;50.864;4.406;2022-07-23T13:33:34;27.90;48.40
25732;DHT22;13585;50.864;4.406;2022-07-23T13:36:00;27.90;48.40
25732;DHT22;13585;50.864;4.406;2022-07-23T13:38:26;27.90;48.40
25732;DHT22;13585;50.864;4.406;2022-07-23T13:40:52;27.90;48.40
25732;DHT22;13585;50.864;4.406;2022-07-23T13:43:20;27.90;48.40
25732;DHT22;13585;50.864;4.406;2022-07-23T13:45:47;27.90;48.50
25732;DHT22;13585;50.864;4.406;2022-07-23T13:48:13;27.90;48.50
25732;DHT22;13585;50.864;4.406;2022-07-23T13:50:40;28.00;48.50
25732;DHT22;13585;50.864;4.406;2022-07-23T13:53:09;28.00;48.50
25732;DHT22;13585;50.864;4.406;2022-07-23T13:55:36;28.00;48.50
25732;DHT22;13585;50.864;4.406;2022-07-23T13:58:02;28.00;48.50
25732;DHT22;13585;50.864;4.406;2022-07-23T14:00:28;28.00;48.60
25732;DHT22;13585;50.864;4.406;2022-07-23T14:02:56;28.00;48.60
25732;DHT22;13585;50.864;4.406;2022-07-23T14:05:21;28.00;48.60
25732;DHT22;13585;50.864;4.406;2022-07-23T14:07:47;28.00;48.60
25732;DHT22;13585;50.864;4.406;2022-07-23T14:10:16;28.00;48.70
25732;DHT22;13585;50.864;4.406;2022-07-23T14:12:42;28.00;48.70
25732;DHT22;13585;50.864;4.406;2022-07-23T14:15:08;28.00;48.60
25732;DHT22;13585;50.864;4.406;2022-07-23T14:17:36;28.00;48.60
25732;DHT22;13585;50.864;4.406;2022-07-23T14:20:03;28.00;48.60
25732;DHT22;13585;50.864;4.406;2022-07-23T14:22:28;28.00;48.60
25732;DHT22;13585;50.864;4.406;2022-07-23T14:24:54;28.00;48.60
25732;DHT22;13585;50.864;4.406;2022-07-23T14:27:20;28.00;48.60
25732;DHT22;13585;50.864;4.406;2022-07-23T14:29:45;28.00;48.70
25732;DHT22;13585;50.864;4.406;2022-07-23T14:32:11;28.00;48.70
25732;DHT22;13585;50.864;4.406;2022-07-23T14:34:37;28.10;48.80
25732;DHT22;13585;50.864;4.406;2022-07-23T14:37:02;28.00;48.70
25732;DHT22;13585;50.864;4.406;2022-07-23T14:39:28;28.10;48.90
25732;DHT22;13585;50.864;4.406;2022-07-23T14:41:54;28.00;48.80
25732;DHT22;13585;50.864;4.406;2022-07-23T14:44:19;28.10;48.90
25732;DHT22;13585;50.864;4.406;2022-07-23T14:46:45;28.10;49.00
25732;DHT22;13585;50.864;4.406;2022-07-23T14:49:11;28.00;48.90
25732;DHT22;13585;50.864;4.406;2022-07-23T14:51:36;28.10;49.00
25732;DHT22;13585;50.864;4.406;2022-07-23T14:54:03;28.10;49.00
25732;DHT22;13585;50.864;4.406;2022-07-23T14:56:29;28.10;49.00
25732;DHT22;13585;50.864;4.406;2022-07-23T14:58:55;28.10;49.10
25732;DHT22;13585;50.864;4.406;2022-07-23T15:01:23;28.10;49.10
25732;DHT22;13585;50.864;4.406;2022-07-23T15:03:49;28.10;49.10
25732;DHT22;13585;50.864;4.406;2022-07-23T15:06:16;28.10;49.10
25732;DHT22;13585;50.864;4.406;2022-07-23T15:08:42;28.10;49.10
25732;DHT22;13585;50.864;4.406;2022-07-23T15:11:08;28.10;49.10
25732;DHT22;13585;50.864;4.406;2022-07-23T15:13:35;28.10;49.10
25732;DHT22;13585;50.864;4.406;2022-07-23T15:16:02;28.10;49.10
25732;DHT22;13585;50.864;4.406;2022-07-23T15:18:28;28.10;49.10
25732;DHT22;13585;50.864;4.406;2022-07-23T15:20:54;28.10;49.10
25732;DHT22;13585;50.864;4.406;2022-07-23T15:23:20;28.10;49.20
25732;DHT22;13585;50.864;4.406;2022-07-23T15:25:46;28.20;49.20
25732;DHT22;13585;50.864;4.406;2022-07-23T15:28:11;28.20;49.20
25732;DHT22;13585;50.864;4.406;2022-07-23T15:30:37;28.20;49.20
25732;DHT22;13585;50.864;4.406;2022-07-23T15:33:03;28.20;49.20
25732;DHT22;13585;50.864;4.406;2022-07-23T15:35:31;28.20;49.20
25732;DHT22;13585;50.864;4.406;2022-07-23T15:37:56;28.20;49.20
25732;DHT22;13585;50.864;4.406;2022-07-23T15:40:22;28.20;49.20
25732;DHT22;13585;50.864;4.406;2022-07-23T15:42:48;28.10;49.20
25732;DHT22;13585;50.864;4.406;2022-07-23T15:45:13;28.20;49.20
25732;DHT22;13585;50.864;4.406;2022-07-23T15:47:40;28.20;49.20
25732;DHT22;13585;50.864;4.406;2022-07-23T15:50:07;28.20;49.20
25732;DHT22;13585;50.864;4.406;2022-07-23T15:52:33;28.20;49.20
25732;DHT22;13585;50.864;4.406;2022-07-23T15:54:58;28.20;49.20
25732;DHT22;13585;50.864;4.406;2022-07-23T15:57:24;28.20;49.20
25732;DHT22;13585;50.864;4.406;2022-07-23T15:59:50;28.20;49.20
25732;DHT22;13585;50.864;4.406;2022-07-23T16:02:16;28.20;49.20
25732;DHT22;13585;50.864;4.406;2022-07-23T16:04:42;28.20;49.20
25732;DHT22;13585;50.864;4.406;2022-07-23T16:07:07;28.20;49.20
25732;DHT22;13585;50.864;4.406;2022-07-23T16:09:33;28.20;49.30
25732;DHT22;13585;50.864;4.406;2022-07-23T16:11:59;28.20;49.90